createdAt,value
2019-05-01T00:00:50.531Z,25.20
2019-05-01T00:03:24.384Z,23.17
2019-05-01T00:05:55.645Z,23.53
2019-05-01T00:08:25.208Z,25.97
2019-05-01T00:10:54.834Z,25.57
2019-05-01T00:13:24.538Z,23.60
2019-05-01T00:15:54.941Z,22.17
2019-05-01T00:18:24.490Z,21.07
2019-05-01T00:20:54.035Z,22.80
2019-05-01T00:23:23.515Z,24.43
2019-05-01T00:25:53.005Z,26.63
2019-05-01T00:28:22.530Z,26.23
2019-05-01T00:30:52.003Z,25.60
2019-05-01T00:33:21.479Z,24.93
2019-05-01T00:35:50.938Z,25.80
2019-05-01T00:38:20.438Z,21.97
2019-05-01T00:40:49.916Z,20.10
2019-05-01T00:43:19.383Z,24.67
2019-05-01T00:45:48.871Z,25.90
2019-05-01T00:48:18.404Z,23.30
2019-05-01T00:50:47.843Z,24.50
2019-05-01T00:53:17.340Z,25.03
2019-05-01T00:55:51.323Z,25.33
2019-05-01T00:58:22.430Z,23.60
2019-05-01T01:00:56.294Z,23.33
2019-05-01T01:03:25.765Z,24.00
2019-05-01T01:05:55.326Z,20.57
2019-05-01T01:08:24.820Z,22.70
2019-05-01T01:10:54.333Z,25.63
2019-05-01T01:13:23.756Z,24.13
2019-05-01T01:15:53.244Z,23.43
2019-05-01T01:18:22.675Z,23.67
2019-05-01T01:20:52.141Z,26.37
2019-05-01T01:23:21.774Z,24.90
2019-05-01T01:25:51.490Z,24.97
2019-05-01T01:28:21.130Z,26.70
2019-05-01T01:30:56.573Z,24.60
2019-05-01T01:33:21.888Z,23.57
2019-05-01T01:35:51.400Z,25.03
2019-05-01T01:38:20.874Z,25.00
2019-05-01T01:40:50.891Z,23.33
2019-05-01T01:43:38.566Z,24.70
2019-05-01T01:46:21.702Z,21.50
2019-05-01T01:48:51.353Z,18.57
2019-05-01T01:51:23.778Z,20.77
2019-05-01T01:53:54.344Z,21.03
2019-05-01T01:56:23.887Z,22.80
2019-05-01T01:58:54.587Z,24.63
2019-05-01T02:01:41.446Z,19.47
2019-05-01T02:04:18.153Z,23.83
2019-05-01T02:06:49.719Z,24.10
2019-05-01T02:09:19.525Z,22.37
2019-05-01T02:11:49.913Z,20.63
2019-05-01T02:14:19.476Z,19.57
2019-05-01T02:16:49.067Z,19.40
2019-05-01T02:19:18.514Z,20.83
2019-05-01T02:21:48.063Z,20.53
2019-05-01T02:24:17.586Z,22.47
2019-05-01T02:26:51.790Z,25.17
2019-05-01T02:29:24.396Z,23.10
2019-05-01T02:31:55.934Z,26.63
2019-05-01T02:34:26.688Z,25.70
2019-05-01T02:37:00.417Z,26.80
2019-05-01T02:39:32.499Z,24.57
2019-05-01T02:42:04.057Z,26.80
2019-05-01T02:44:47.259Z,27.80
2019-05-01T02:47:21.343Z,27.77
2019-05-01T02:49:58.198Z,26.50
2019-05-01T02:52:32.263Z,25.53
2019-05-01T02:55:06.654Z,24.63
2019-05-01T02:57:39.560Z,25.80
2019-05-01T03:00:10.398Z,23.60
2019-05-01T03:02:41.387Z,22.43
2019-05-01T03:05:11.135Z,24.80
2019-05-01T03:07:41.786Z,23.77
2019-05-01T03:10:12.095Z,25.77
2019-05-01T03:12:46.499Z,25.03
2019-05-01T03:15:18.145Z,25.07
2019-05-01T03:17:53.213Z,25.33
2019-05-01T03:20:25.247Z,23.47
2019-05-01T03:23:12.498Z,23.30
2019-05-01T03:25:42.677Z,25.07
2019-05-01T03:28:13.379Z,25.50
2019-05-01T03:30:42.977Z,24.57
2019-05-01T03:33:12.884Z,27.00
2019-05-01T03:35:42.428Z,25.67
2019-05-01T03:38:12.307Z,26.27
2019-05-01T03:40:42.565Z,23.53
2019-05-01T03:43:12.994Z,25.90
2019-05-01T03:45:43.280Z,28.40
2019-05-01T03:48:12.970Z,26.40
2019-05-01T03:50:46.502Z,25.13
2019-05-01T03:53:14.043Z,27.07
2019-05-01T03:55:44.094Z,27.83
2019-05-01T03:58:13.826Z,28.53
2019-05-01T04:00:45.373Z,28.03
2019-05-01T04:03:25.595Z,27.50
2019-05-01T04:05:55.676Z,25.87
2019-05-01T04:08:26.162Z,26.77
2019-05-01T04:10:56.670Z,25.03
2019-05-01T04:13:27.077Z,23.60
2019-05-01T04:15:56.975Z,26.40
2019-05-01T04:18:27.678Z,25.20
2019-05-01T04:20:58.553Z,25.43
2019-05-01T04:23:28.736Z,25.90
2019-05-01T04:25:58.069Z,25.57
2019-05-01T04:28:41.724Z,25.37
2019-05-01T04:31:15.798Z,24.97
2019-05-01T04:33:47.480Z,23.30
2019-05-01T04:36:24.644Z,24.77
2019-05-01T04:38:54.409Z,26.43
2019-05-01T04:41:24.229Z,28.07
2019-05-01T04:43:54.105Z,26.63
2019-05-01T04:46:23.904Z,25.80
2019-05-01T04:48:53.910Z,25.23
2019-05-01T04:51:23.645Z,21.93
2019-05-01T04:53:53.241Z,26.17
2019-05-01T04:56:22.880Z,23.80
2019-05-01T04:58:53.108Z,23.73
2019-05-01T05:01:22.589Z,26.37
2019-05-01T05:03:52.384Z,24.67
2019-05-01T05:06:21.830Z,26.17
2019-05-01T05:08:51.532Z,27.07
2019-05-01T05:11:23.089Z,24.27
2019-05-01T05:14:09.215Z,25.07
2019-05-01T05:16:46.482Z,22.87
2019-05-01T05:19:16.397Z,23.80
2019-05-01T05:21:46.255Z,26.90
2019-05-01T05:24:15.975Z,24.33
2019-05-01T05:26:47.020Z,25.07
2019-05-01T05:29:20.364Z,23.80
2019-05-01T05:31:52.648Z,23.00
2019-05-01T05:34:25.482Z,24.03
2019-05-01T05:36:59.659Z,24.83
2019-05-01T05:39:33.197Z,24.63
2019-05-01T05:42:04.850Z,21.97
2019-05-01T05:44:35.895Z,24.33
2019-05-01T05:47:06.046Z,24.87
2019-05-01T05:49:36.135Z,24.27
2019-05-01T05:52:24.626Z,25.53
2019-05-01T05:55:01.769Z,24.43
2019-05-01T05:57:52.614Z,24.27
2019-05-01T06:00:39.161Z,25.37
2019-05-01T06:03:34.784Z,24.37
2019-05-01T06:06:22.161Z,24.50
2019-05-01T06:08:56.235Z,24.37
2019-05-01T06:11:34.037Z,24.13
2019-05-01T06:14:11.032Z,24.93
2019-05-01T06:16:52.150Z,23.90
2019-05-01T06:19:25.104Z,25.53
2019-05-01T06:22:14.684Z,24.67
2019-05-01T06:25:05.757Z,24.50
2019-05-01T06:27:36.041Z,24.37
2019-05-01T06:30:10.986Z,23.20
2019-05-01T06:32:42.721Z,26.07
2019-05-01T06:35:12.611Z,25.20
2019-05-01T06:38:02.293Z,25.43
2019-05-01T06:40:44.403Z,26.47
2019-05-01T06:43:31.836Z,23.27
2019-05-01T06:46:11.792Z,24.63
2019-05-01T06:49:09.595Z,24.67
2019-05-01T06:51:47.913Z,23.87
2019-05-01T06:54:17.569Z,25.87
2019-05-01T06:56:48.744Z,25.27
2019-05-01T06:59:19.073Z,26.43
2019-05-01T07:01:53.112Z,24.60
2019-05-01T07:04:22.344Z,25.13
2019-05-01T07:06:52.406Z,25.83
2019-05-01T07:09:28.101Z,25.67
2019-05-01T07:11:55.163Z,24.73
2019-05-01T07:14:25.105Z,25.63
2019-05-01T07:16:54.780Z,24.30
2019-05-01T07:19:26.097Z,23.37
2019-05-01T07:21:55.637Z,25.07
2019-05-01T07:24:28.044Z,25.90
2019-05-01T07:26:56.446Z,25.20
2019-05-01T07:29:32.692Z,25.30
2019-05-01T07:32:01.608Z,23.93
2019-05-01T07:34:32.397Z,24.53
2019-05-01T07:37:02.619Z,24.60
2019-05-01T07:39:32.751Z,24.00
2019-05-01T07:42:20.415Z,23.80
2019-05-01T07:45:09.686Z,23.47
2019-05-01T07:47:40.971Z,22.87
2019-05-01T07:50:14.716Z,25.20
2019-05-01T07:52:47.802Z,23.47
2019-05-01T07:55:20.076Z,23.97
2019-05-01T07:57:50.248Z,24.30
2019-05-01T08:00:36.879Z,25.60
2019-05-01T08:03:07.157Z,24.43
2019-05-01T08:05:35.659Z,24.13
2019-05-01T08:08:07.818Z,23.80
2019-05-01T08:10:36.318Z,24.10
2019-05-01T08:13:05.782Z,24.40
2019-05-01T08:15:35.288Z,23.37
2019-05-01T08:18:12.668Z,22.50
2019-05-01T08:20:50.420Z,24.43
2019-05-01T08:23:17.874Z,23.37
2019-05-01T08:25:47.335Z,23.70
2019-05-01T08:28:34.644Z,24.70
2019-05-01T08:31:17.747Z,23.03
2019-05-01T08:33:55.007Z,23.57
2019-05-01T08:36:24.447Z,23.23
2019-05-01T08:38:53.953Z,21.97
2019-05-01T08:41:26.982Z,21.87
2019-05-01T08:43:55.929Z,23.70
2019-05-01T08:46:46.788Z,22.47
2019-05-01T08:49:20.932Z,22.27
2019-05-01T08:51:50.525Z,22.97
2019-05-01T08:54:19.998Z,23.03
2019-05-01T08:56:53.082Z,23.00
2019-05-01T08:59:24.133Z,23.87
2019-05-01T09:02:07.926Z,21.37
2019-05-01T09:04:25.417Z,21.83
2019-05-01T09:06:54.362Z,22.37
2019-05-01T09:09:23.907Z,21.77
2019-05-01T09:11:54.735Z,23.50
2019-05-01T09:14:24.611Z,22.73
2019-05-01T09:16:54.058Z,22.97
2019-05-01T09:19:23.617Z,23.07
2019-05-01T09:21:53.093Z,22.13
2019-05-01T09:24:27.410Z,23.13
2019-05-01T09:26:58.509Z,21.77
2019-05-01T09:29:38.892Z,23.63
2019-05-01T09:32:10.162Z,23.67
2019-05-01T09:34:59.123Z,23.03
2019-05-01T09:37:28.601Z,22.63
2019-05-01T09:39:58.085Z,25.23
2019-05-01T09:42:27.683Z,23.47
2019-05-01T09:44:57.295Z,23.83
2019-05-01T09:47:27.199Z,23.60
2019-05-01T09:49:56.721Z,24.57
2019-05-01T09:52:30.540Z,24.53
2019-05-01T09:55:17.816Z,25.87
2019-05-01T09:57:45.036Z,25.60
2019-05-01T10:00:19.567Z,24.57
2019-05-01T10:02:49.051Z,26.13
2019-05-01T10:05:28.391Z,25.70
2019-05-01T10:07:49.846Z,24.60
2019-05-01T10:10:19.333Z,25.17
2019-05-01T10:12:48.961Z,25.83
2019-05-01T10:15:18.396Z,27.03
2019-05-01T10:17:47.858Z,25.53
2019-05-01T10:20:17.516Z,25.73
2019-05-01T10:22:47.017Z,25.93
2019-05-01T10:25:16.648Z,26.77
2019-05-01T10:27:56.639Z,24.87
2019-05-01T10:30:31.628Z,24.67
2019-05-01T10:33:03.454Z,25.27
2019-05-01T10:35:42.809Z,25.77
2019-05-01T10:38:09.328Z,27.43
2019-05-01T10:40:39.961Z,26.57
2019-05-01T10:43:09.412Z,27.60
2019-05-01T10:45:39.049Z,27.97
2019-05-01T10:48:08.484Z,26.97
2019-05-01T10:50:37.954Z,26.07
2019-05-01T10:53:09.076Z,28.20
2019-05-01T10:55:38.589Z,31.33
2019-05-01T10:58:08.029Z,29.67
2019-05-01T11:00:39.332Z,29.30
2019-05-01T11:03:09.357Z,31.97
2019-05-01T11:05:38.867Z,28.27
2019-05-01T11:08:08.430Z,29.07
2019-05-01T11:10:37.889Z,27.60
2019-05-01T11:13:07.849Z,29.23
2019-05-01T11:15:37.617Z,32.70
2019-05-01T11:18:07.132Z,30.03
2019-05-01T11:20:36.736Z,31.63
2019-05-01T11:23:06.285Z,32.77
2019-05-01T11:25:37.431Z,30.83
2019-05-01T11:28:07.094Z,31.47
2019-05-01T11:30:36.575Z,32.30
2019-05-01T11:33:07.832Z,32.17
2019-05-01T11:36:08.357Z,30.23
2019-05-01T11:38:46.617Z,32.87
2019-05-01T11:41:17.897Z,33.27
2019-05-01T11:43:47.394Z,30.33
2019-05-01T11:46:16.873Z,33.73
2019-05-01T11:48:46.482Z,33.43
2019-05-01T11:51:15.977Z,32.87
2019-05-01T11:53:45.447Z,30.47
2019-05-01T11:56:14.917Z,29.60
2019-05-01T11:58:44.419Z,31.57
2019-05-01T12:01:15.524Z,33.47
2019-05-01T12:03:45.002Z,29.03
2019-05-01T12:06:22.759Z,35.47
2019-05-01T12:08:45.668Z,34.07
2019-05-01T12:11:16.757Z,33.10
2019-05-01T12:13:46.284Z,34.37
2019-05-01T12:16:20.431Z,30.43
2019-05-01T12:18:49.976Z,33.70
2019-05-01T12:21:19.458Z,31.73
2019-05-01T12:23:48.982Z,30.97
2019-05-01T12:26:18.493Z,31.53
2019-05-01T12:28:47.943Z,32.63
2019-05-01T12:31:17.429Z,32.57
2019-05-01T12:33:46.975Z,33.10
2019-05-01T12:36:16.443Z,34.07
2019-05-01T12:38:46.082Z,34.27
2019-05-01T12:41:17.214Z,33.10
2019-05-01T12:43:46.679Z,34.33
2019-05-01T12:46:35.853Z,33.43
2019-05-01T12:49:08.321Z,32.63
2019-05-01T12:51:39.073Z,34.43
2019-05-01T12:54:12.935Z,33.80
2019-05-01T12:56:58.651Z,33.50
2019-05-01T12:59:28.197Z,33.23
2019-05-01T13:01:57.689Z,32.73
2019-05-01T13:04:27.157Z,31.70
2019-05-01T13:06:59.607Z,34.33
2019-05-01T13:09:29.092Z,31.83
2019-05-01T13:11:58.580Z,35.90
2019-05-01T13:14:28.047Z,33.50
2019-05-01T13:16:57.499Z,32.40
2019-05-01T13:19:27.011Z,34.23
2019-05-01T13:21:56.485Z,33.10
2019-05-01T13:24:25.990Z,33.63
2019-05-01T13:26:57.160Z,34.10
2019-05-01T13:29:39.693Z,37.03
2019-05-01T13:32:28.067Z,37.53
2019-05-01T13:34:57.511Z,35.37
2019-05-01T13:37:27.104Z,35.87
2019-05-01T13:39:56.652Z,38.43
2019-05-01T13:42:26.077Z,35.73
2019-05-01T13:44:55.542Z,35.43
2019-05-01T13:47:25.112Z,36.13
2019-05-01T13:49:54.615Z,36.93
2019-05-01T13:52:24.093Z,36.53
2019-05-01T13:54:53.694Z,37.53
2019-05-01T13:57:23.120Z,34.63
2019-05-01T13:59:52.577Z,36.00
2019-05-01T14:02:22.080Z,35.23
2019-05-01T14:04:51.487Z,37.73
2019-05-01T14:07:21.023Z,36.37
2019-05-01T14:09:50.502Z,33.83
2019-05-01T14:12:20.056Z,34.60
2019-05-01T14:14:49.471Z,36.40
2019-05-01T14:17:18.945Z,35.07
2019-05-01T14:19:52.759Z,36.27
2019-05-01T14:22:26.666Z,35.77
2019-05-01T14:24:57.851Z,36.07
2019-05-01T14:27:27.323Z,36.63
2019-05-01T14:29:56.985Z,35.70
2019-05-01T14:32:27.166Z,34.50
2019-05-01T14:34:56.675Z,34.57
2019-05-01T14:37:29.826Z,36.13
2019-05-01T14:39:57.390Z,33.87
2019-05-01T14:42:26.886Z,34.03
2019-05-01T14:44:56.334Z,33.97
2019-05-01T14:47:25.660Z,35.57
2019-05-01T14:49:55.106Z,35.03
2019-05-01T14:52:24.685Z,35.07
2019-05-01T14:54:54.380Z,36.57
2019-05-01T14:57:23.836Z,33.43
2019-05-01T14:59:53.285Z,37.23
2019-05-01T15:02:22.743Z,36.93
2019-05-01T15:04:52.307Z,33.20
2019-05-01T15:07:21.743Z,38.00
2019-05-01T15:09:51.030Z,34.67
2019-05-01T15:12:20.526Z,36.63
2019-05-01T15:15:00.893Z,34.57
2019-05-01T15:17:32.072Z,32.60
2019-05-01T15:20:05.269Z,34.80
2019-05-01T15:22:34.796Z,32.00
2019-05-01T15:25:06.002Z,33.37
2019-05-01T15:27:35.503Z,30.13
2019-05-01T15:30:08.370Z,33.33
2019-05-01T15:32:37.859Z,31.47
2019-05-01T15:35:07.670Z,33.77
2019-05-01T15:37:37.131Z,32.17
2019-05-01T15:40:09.554Z,33.63
2019-05-01T15:42:40.805Z,34.67
2019-05-01T15:45:10.853Z,33.67
2019-05-01T15:47:40.350Z,30.73
2019-05-01T15:50:10.247Z,32.83
2019-05-01T15:52:39.719Z,34.50
2019-05-01T15:55:09.940Z,34.33
2019-05-01T15:57:39.486Z,34.50
2019-05-01T16:00:13.543Z,31.60
2019-05-01T16:02:43.048Z,33.63
2019-05-01T16:05:12.834Z,32.67
2019-05-01T16:07:42.299Z,32.47
2019-05-01T16:10:14.073Z,33.03
2019-05-01T16:12:48.320Z,33.37
2019-05-01T16:15:19.975Z,30.70
2019-05-01T16:17:49.472Z,33.20
2019-05-01T16:20:19.088Z,31.13
2019-05-01T16:22:49.072Z,34.20
2019-05-01T16:25:18.957Z,34.23
2019-05-01T16:27:48.580Z,30.97
2019-05-01T16:30:19.973Z,30.07
2019-05-01T16:32:49.488Z,32.20
2019-05-01T16:35:18.970Z,31.73
2019-05-01T16:37:48.412Z,34.00
2019-05-01T16:40:34.672Z,31.83
2019-05-01T16:43:05.826Z,30.60
2019-05-01T16:45:35.443Z,31.60
2019-05-01T16:48:05.403Z,28.73
2019-05-01T16:50:34.842Z,33.27
2019-05-01T16:53:04.532Z,31.17
2019-05-01T16:55:34.061Z,35.33
2019-05-01T16:58:05.100Z,33.70
2019-05-01T17:01:03.536Z,31.90
2019-05-01T17:03:46.537Z,29.73
2019-05-01T17:06:17.686Z,32.23
2019-05-01T17:08:54.649Z,32.47
2019-05-01T17:11:34.607Z,32.77
2019-05-01T17:14:05.924Z,33.93
2019-05-01T17:16:35.527Z,32.67
2019-05-01T17:19:05.547Z,30.70
2019-05-01T17:21:35.012Z,33.83
2019-05-01T17:24:04.597Z,35.07
2019-05-01T17:26:34.171Z,34.93
2019-05-01T17:29:04.131Z,35.40
2019-05-01T17:31:33.849Z,34.93
2019-05-01T17:34:03.818Z,33.40
2019-05-01T17:36:33.257Z,36.30
2019-05-01T17:39:02.699Z,37.37
2019-05-01T17:41:32.216Z,35.80
2019-05-01T17:44:01.682Z,39.50
2019-05-01T17:46:31.182Z,38.83
2019-05-01T17:49:04.054Z,39.40
2019-05-01T17:51:31.894Z,41.63
2019-05-01T17:54:01.359Z,41.33
2019-05-01T17:56:30.873Z,40.87
2019-05-01T17:59:00.359Z,40.97
2019-05-01T18:01:34.356Z,43.40
2019-05-01T18:04:14.606Z,42.80
2019-05-01T18:06:46.549Z,39.50
2019-05-01T18:09:17.969Z,39.73
2019-05-01T18:11:52.388Z,42.80
2019-05-01T18:14:18.830Z,41.07
2019-05-01T18:16:48.520Z,41.93
2019-05-01T18:19:18.020Z,42.37
2019-05-01T18:21:51.787Z,42.17
2019-05-01T18:24:39.183Z,41.10
2019-05-01T18:27:20.429Z,40.27
2019-05-01T18:29:54.380Z,40.33
2019-05-01T18:32:25.492Z,42.00
2019-05-01T18:34:55.147Z,39.73
2019-05-01T18:37:26.292Z,42.33
2019-05-01T18:39:55.740Z,41.40
2019-05-01T18:42:25.190Z,42.30
2019-05-01T18:44:54.760Z,42.30
2019-05-01T18:47:25.338Z,41.43
2019-05-01T18:49:54.823Z,43.47
2019-05-01T18:52:24.309Z,44.03
2019-05-01T18:54:53.773Z,43.37
2019-05-01T18:57:23.299Z,42.73
2019-05-01T18:59:52.975Z,42.77
2019-05-01T19:02:25.099Z,43.03
2019-05-01T19:04:53.868Z,44.47
2019-05-01T19:07:23.459Z,44.37
2019-05-01T19:09:52.992Z,42.43
2019-05-01T19:12:22.516Z,43.50
2019-05-01T19:14:52.086Z,43.07
2019-05-01T19:17:21.571Z,43.63
2019-05-01T19:19:51.039Z,45.40
2019-05-01T19:22:20.608Z,45.73
2019-05-01T19:24:50.410Z,44.10
2019-05-01T19:27:20.936Z,44.43
2019-05-01T19:29:51.445Z,45.33
2019-05-01T19:32:21.950Z,44.13
2019-05-01T19:34:51.559Z,45.53
2019-05-01T19:37:23.813Z,45.23
2019-05-01T19:39:54.972Z,43.83
2019-05-01T19:42:24.680Z,43.47
2019-05-01T19:44:56.258Z,40.83
2019-05-01T19:47:25.796Z,39.87
2019-05-01T19:49:55.400Z,43.63
2019-05-01T19:52:24.942Z,43.37
2019-05-01T19:54:54.420Z,43.33
2019-05-01T19:57:23.858Z,42.90
2019-05-01T19:59:53.606Z,40.43
2019-05-01T20:02:24.063Z,42.90
2019-05-01T20:04:53.699Z,42.70
2019-05-01T20:07:23.193Z,42.43
2019-05-01T20:09:56.937Z,42.87
2019-05-01T20:12:23.903Z,41.00
2019-05-01T20:14:53.387Z,41.80
2019-05-01T20:17:23.587Z,40.07
2019-05-01T20:19:53.229Z,38.33
2019-05-01T20:22:22.697Z,37.43
2019-05-01T20:24:53.653Z,37.97
2019-05-01T20:27:23.170Z,38.63
2019-05-01T20:29:52.655Z,38.83
2019-05-01T20:32:26.323Z,36.33
2019-05-01T20:34:54.016Z,36.13
2019-05-01T20:37:23.487Z,35.53
2019-05-01T20:39:53.194Z,35.97
2019-05-01T20:42:22.634Z,35.10
2019-05-01T20:45:03.920Z,33.73
2019-05-01T20:47:34.390Z,33.47
2019-05-01T20:49:54.537Z,32.20
2019-05-01T20:52:24.046Z,33.53
2019-05-01T20:54:53.560Z,32.23
2019-05-01T20:57:27.485Z,31.70
2019-05-01T20:59:56.983Z,32.47
2019-05-01T21:02:26.544Z,32.37
2019-05-01T21:05:13.997Z,32.47
2019-05-01T21:07:45.186Z,31.97
2019-05-01T21:10:24.498Z,31.80
2019-05-01T21:12:46.777Z,31.47
2019-05-01T21:15:19.988Z,31.23
2019-05-01T21:17:49.286Z,31.13
2019-05-01T21:20:18.828Z,30.87
2019-05-01T21:22:48.335Z,30.20
2019-05-01T21:25:17.781Z,28.80
2019-05-01T21:27:47.225Z,30.00
2019-05-01T21:30:16.848Z,30.27
2019-05-01T21:32:46.270Z,29.37
2019-05-01T21:35:15.814Z,29.57
2019-05-01T21:37:45.299Z,30.10
2019-05-01T21:40:14.889Z,29.83
2019-05-01T21:42:47.408Z,29.80
2019-05-01T21:45:15.641Z,28.30
2019-05-01T21:47:45.099Z,28.17
2019-05-01T21:50:17.800Z,29.83
2019-05-01T21:52:45.997Z,29.97
2019-05-01T21:55:15.485Z,29.33
2019-05-01T21:57:45.073Z,28.67
2019-05-01T22:00:19.830Z,29.73
2019-05-01T22:02:47.621Z,28.40
2019-05-01T22:05:17.061Z,27.97
2019-05-01T22:07:46.562Z,29.70
2019-05-01T22:10:16.389Z,28.73
2019-05-01T22:12:49.015Z,29.17
2019-05-01T22:15:19.727Z,28.43
2019-05-01T22:17:56.932Z,27.93
2019-05-01T22:20:28.051Z,27.77
2019-05-01T22:22:59.190Z,27.53
2019-05-01T22:25:33.278Z,27.10
2019-05-01T22:28:18.749Z,28.77
2019-05-01T22:30:58.246Z,27.70
2019-05-01T22:33:28.068Z,28.70
2019-05-01T22:35:57.525Z,28.40
2019-05-01T22:38:26.997Z,28.60
2019-05-01T22:41:06.405Z,28.23
2019-05-01T22:43:32.203Z,28.03
2019-05-01T22:46:03.390Z,28.37
2019-05-01T22:48:33.035Z,29.83
2019-05-01T22:51:04.113Z,29.33
2019-05-01T22:53:33.556Z,26.57
2019-05-01T22:56:04.099Z,27.30
2019-05-01T22:58:33.771Z,28.43
2019-05-01T23:01:03.898Z,26.73
2019-05-01T23:03:52.889Z,27.20
2019-05-01T23:06:22.419Z,27.33
2019-05-01T23:08:51.970Z,26.90
2019-05-01T23:11:22.481Z,28.77
2019-05-01T23:13:51.931Z,26.93
2019-05-01T23:16:23.130Z,28.57
2019-05-01T23:18:53.216Z,28.70
2019-05-01T23:21:22.891Z,28.10
2019-05-01T23:23:56.865Z,27.23
2019-05-01T23:26:23.622Z,24.90
2019-05-01T23:28:53.140Z,27.23
2019-05-01T23:31:22.756Z,27.20
2019-05-01T23:33:52.319Z,27.30
2019-05-01T23:36:23.629Z,28.37
2019-05-01T23:38:52.915Z,25.50
2019-05-01T23:41:24.850Z,28.33
2019-05-01T23:43:53.589Z,26.23
2019-05-01T23:46:23.075Z,25.40
2019-05-01T23:48:52.519Z,27.23
2019-05-01T23:51:23.736Z,27.07
2019-05-01T23:53:53.162Z,27.20
2019-05-01T23:56:22.616Z,27.53
2019-05-01T23:58:52.168Z,27.63
